createdAt,value
2018-09-04T00:00:26.820Z,97.00
2018-09-04T00:02:55.173Z,97.00
2018-09-04T00:05:23.505Z,97.00
2018-09-04T00:07:51.822Z,97.00
2018-09-04T00:10:20.177Z,97.00
2018-09-04T00:12:48.530Z,97.00
2018-09-04T00:15:16.884Z,97.00
2018-09-04T00:17:45.242Z,97.00
2018-09-04T00:20:13.627Z,97.00
2018-09-04T00:22:42.034Z,97.00
2018-09-04T00:25:10.340Z,97.00
2018-09-04T00:27:38.711Z,97.00
2018-09-04T00:30:07.296Z,97.00
2018-09-04T00:32:35.680Z,97.00
2018-09-04T00:35:04.043Z,97.00
2018-09-04T00:37:32.349Z,97.00
2018-09-04T00:40:01.093Z,97.00
2018-09-04T00:42:29.454Z,97.00
2018-09-04T00:44:57.854Z,97.00
2018-09-04T00:47:26.229Z,97.00
2018-09-04T00:49:54.615Z,97.00
2018-09-04T00:52:22.972Z,97.00
2018-09-04T00:54:51.286Z,97.00
2018-09-04T00:57:19.656Z,97.00
2018-09-04T00:59:47.958Z,97.00
2018-09-04T01:02:16.354Z,97.00
2018-09-04T01:04:46.024Z,97.00
2018-09-04T01:07:14.804Z,97.00
2018-09-04T01:09:43.176Z,97.00
2018-09-04T01:12:11.554Z,97.00
2018-09-04T01:14:40.023Z,97.00
2018-09-04T01:17:08.408Z,97.00
2018-09-04T01:19:36.734Z,97.00
2018-09-04T01:22:05.500Z,97.00
2018-09-04T01:24:33.971Z,97.00
2018-09-04T01:27:02.332Z,97.00
2018-09-04T01:29:30.672Z,97.00
2018-09-04T01:31:58.994Z,97.00
2018-09-04T01:34:27.325Z,97.00
2018-09-04T01:36:55.704Z,97.00
2018-09-04T01:39:24.034Z,97.00
2018-09-04T01:41:52.404Z,97.00
2018-09-04T01:44:20.856Z,97.00
2018-09-04T01:46:49.167Z,97.00
2018-09-04T01:49:17.514Z,97.00
2018-09-04T01:51:45.848Z,97.00
2018-09-04T01:54:14.178Z,97.00
2018-09-04T01:56:42.565Z,97.00
2018-09-04T01:59:10.935Z,97.00
2018-09-04T02:01:39.415Z,97.00
2018-09-04T02:04:07.774Z,97.00
2018-09-04T02:06:36.140Z,97.00
2018-09-04T02:09:05.443Z,97.00
2018-09-04T02:11:33.796Z,97.00
2018-09-04T02:14:02.153Z,97.00
2018-09-04T02:16:30.500Z,97.00
2018-09-04T02:18:58.901Z,97.00
2018-09-04T02:21:27.300Z,97.00
2018-09-04T02:23:55.806Z,97.00
2018-09-04T02:26:24.152Z,97.00
2018-09-04T02:28:52.557Z,97.00
2018-09-04T02:31:20.909Z,97.00
2018-09-04T02:33:49.332Z,97.00
2018-09-04T02:36:17.653Z,97.00
2018-09-04T02:38:46.016Z,97.00
2018-09-04T02:41:14.513Z,97.00
2018-09-04T02:43:42.878Z,97.00
2018-09-04T02:46:11.250Z,97.00
2018-09-04T02:48:39.750Z,97.00
2018-09-04T02:51:08.100Z,97.00
2018-09-04T02:53:36.469Z,97.00
2018-09-04T02:56:04.844Z,97.00
2018-09-04T02:58:33.231Z,97.00
2018-09-04T03:01:01.571Z,97.00
2018-09-04T03:03:29.924Z,97.00
2018-09-04T03:05:58.264Z,97.00
2018-09-04T03:08:26.652Z,97.00
2018-09-04T03:10:55.104Z,97.00
2018-09-04T03:13:23.489Z,97.00
2018-09-04T03:15:51.817Z,97.00
2018-09-04T03:18:20.156Z,97.00
2018-09-04T03:20:48.505Z,97.00
2018-09-04T03:23:17.549Z,97.00
2018-09-04T03:25:45.915Z,97.00
2018-09-04T03:28:14.244Z,97.00
2018-09-04T03:30:42.651Z,97.00
2018-09-04T03:33:10.975Z,97.00
2018-09-04T03:35:39.295Z,97.00
2018-09-04T03:38:07.611Z,97.00
2018-09-04T03:40:36.040Z,97.00
2018-09-04T03:43:04.336Z,97.00
2018-09-04T03:45:32.667Z,97.00
2018-09-04T03:48:01.051Z,97.00
2018-09-04T03:50:29.371Z,97.00
2018-09-04T03:52:57.789Z,97.00
2018-09-04T03:55:26.156Z,97.00
2018-09-04T03:57:54.479Z,97.00
2018-09-04T04:00:22.837Z,97.00
2018-09-04T04:02:57.996Z,97.00
2018-09-04T04:05:26.386Z,97.00
2018-09-04T04:07:54.675Z,97.00
2018-09-04T04:10:23.132Z,97.00
2018-09-04T04:12:51.472Z,97.00
2018-09-04T04:15:20.600Z,97.00
2018-09-04T04:17:48.989Z,97.00
2018-09-04T04:20:17.315Z,97.00
2018-09-04T04:22:45.953Z,97.00
2018-09-04T04:25:14.433Z,97.00
2018-09-04T04:27:42.892Z,97.00
2018-09-04T04:30:11.352Z,97.00
2018-09-04T04:32:39.840Z,97.00
2018-09-04T04:35:08.289Z,97.00
2018-09-04T04:37:36.715Z,97.00
2018-09-04T04:40:06.185Z,97.00
2018-09-04T04:42:34.579Z,97.00
2018-09-04T04:45:02.970Z,97.00
2018-09-04T04:47:36.770Z,97.00
2018-09-04T04:50:05.239Z,97.00
2018-09-04T04:52:33.664Z,97.00
2018-09-04T04:55:02.054Z,97.00
2018-09-04T04:57:30.425Z,97.00
2018-09-04T04:59:58.784Z,97.00
2018-09-04T05:02:27.131Z,97.00
2018-09-04T05:04:55.520Z,97.00
2018-09-04T05:07:25.223Z,97.00
2018-09-04T05:09:53.581Z,97.00
2018-09-04T05:12:22.826Z,97.00
2018-09-04T05:14:51.370Z,97.00
2018-09-04T05:17:20.267Z,97.00
2018-09-04T05:19:55.189Z,97.00
2018-09-04T05:22:23.525Z,97.00
2018-09-04T05:24:51.853Z,97.00
2018-09-04T05:27:20.211Z,97.00
2018-09-04T05:29:48.567Z,97.00
2018-09-04T05:32:22.078Z,97.00
2018-09-04T05:34:50.381Z,97.00
2018-09-04T05:37:18.692Z,97.00
2018-09-04T05:39:47.041Z,97.00
2018-09-04T05:42:20.764Z,97.00
2018-09-04T05:44:49.117Z,97.00
2018-09-04T05:47:17.458Z,97.00
2018-09-04T05:49:45.821Z,97.00
2018-09-04T05:52:14.120Z,97.00
2018-09-04T05:54:42.437Z,97.00
2018-09-04T05:57:10.777Z,97.00
2018-09-04T05:59:39.119Z,97.00
2018-09-04T06:02:07.456Z,97.00
2018-09-04T06:04:35.752Z,97.00
2018-09-04T06:07:04.033Z,97.00
2018-09-04T06:09:33.650Z,97.00
2018-09-04T06:12:01.976Z,97.00
2018-09-04T06:14:30.312Z,97.00
2018-09-04T06:16:58.710Z,97.00
2018-09-04T06:19:27.067Z,97.00
2018-09-04T06:24:46.433Z,97.00
2018-09-04T06:27:14.784Z,97.00
2018-09-04T06:29:43.101Z,97.00
2018-09-04T06:32:11.524Z,97.00
2018-09-04T06:34:39.894Z,97.00
2018-09-04T06:37:08.245Z,97.00
2018-09-04T06:39:36.599Z,97.00
2018-09-04T06:42:05.051Z,97.00
2018-09-04T06:44:33.582Z,97.00
2018-09-04T06:47:01.906Z,97.00
2018-09-04T06:49:30.439Z,97.00
2018-09-04T06:52:05.945Z,97.00
2018-09-04T06:54:34.280Z,97.00
2018-09-04T06:57:02.633Z,97.00
2018-09-04T06:59:37.639Z,97.00
2018-09-04T07:02:06.093Z,97.00
2018-09-04T07:04:34.748Z,97.00
2018-09-04T07:07:03.312Z,97.00
2018-09-04T07:09:31.616Z,97.00
2018-09-04T07:12:00.107Z,97.00
2018-09-04T07:14:28.449Z,97.00
2018-09-04T07:16:56.861Z,97.00
2018-09-04T07:19:25.233Z,97.00
2018-09-04T07:21:53.672Z,97.00
2018-09-04T07:24:22.197Z,97.00
2018-09-04T07:26:50.412Z,97.00
2018-09-04T07:29:18.776Z,97.00
2018-09-04T07:31:47.169Z,97.00
2018-09-04T07:34:15.626Z,97.00
2018-09-04T07:36:44.032Z,97.00
2018-09-04T07:39:12.780Z,97.00
2018-09-04T07:41:41.303Z,97.00
2018-09-04T07:44:09.700Z,97.00
2018-09-04T07:46:38.300Z,97.00
2018-09-04T07:49:06.850Z,97.00
2018-09-04T07:51:35.149Z,97.00
2018-09-04T07:54:03.479Z,97.00
2018-09-04T07:56:31.823Z,97.00
2018-09-04T07:59:00.120Z,97.00
2018-09-04T08:01:28.547Z,97.00
2018-09-04T08:03:56.905Z,97.00
2018-09-04T08:06:25.235Z,97.00
2018-09-04T08:08:53.582Z,97.00
2018-09-04T08:11:21.976Z,97.00
2018-09-04T08:13:50.295Z,97.00
2018-09-04T08:16:18.716Z,97.00
2018-09-04T08:18:47.077Z,97.00
2018-09-04T08:21:15.431Z,97.00
2018-09-04T08:23:43.790Z,97.00
2018-09-04T08:26:13.404Z,97.00
2018-09-04T08:28:41.855Z,96.00
2018-09-04T08:31:10.184Z,94.60
2018-09-04T08:33:38.546Z,93.60
2018-09-04T08:36:06.922Z,93.20
2018-09-04T08:38:39.509Z,93.20
2018-09-04T08:41:07.894Z,93.00
2018-09-04T08:43:36.233Z,92.30
2018-09-04T08:46:04.599Z,90.80
2018-09-04T08:48:32.949Z,90.60
2018-09-04T08:51:01.276Z,90.60
2018-09-04T08:53:29.691Z,88.90
2018-09-04T08:55:58.701Z,89.20
2018-09-04T08:58:27.105Z,88.20
2018-09-04T09:00:55.441Z,87.70
2018-09-04T09:03:23.820Z,86.40
2018-09-04T09:05:52.461Z,86.80
2018-09-04T09:08:20.825Z,87.00
2018-09-04T09:10:49.106Z,85.30
2018-09-04T09:13:17.448Z,85.70
2018-09-04T09:15:45.805Z,86.50
2018-09-04T09:18:14.129Z,85.50
2018-09-04T09:20:42.413Z,85.90
2018-09-04T09:23:10.765Z,86.20
2018-09-04T09:25:39.115Z,85.50
2018-09-04T09:28:07.495Z,84.00
2018-09-04T09:30:35.860Z,83.70
2018-09-04T09:33:04.179Z,82.30
2018-09-04T09:35:32.649Z,82.50
2018-09-04T09:38:01.154Z,81.70
2018-09-04T09:40:29.501Z,82.20
2018-09-04T09:42:57.829Z,82.50
2018-09-04T09:45:26.911Z,83.30
2018-09-04T09:47:55.232Z,84.90
2018-09-04T09:50:23.552Z,85.70
2018-09-04T09:52:51.944Z,84.60
2018-09-04T09:55:20.241Z,84.00
2018-09-04T09:57:48.546Z,83.50
2018-09-04T10:00:22.092Z,82.40
2018-09-04T10:03:09.610Z,82.00
2018-09-04T10:05:38.016Z,82.30
2018-09-04T10:08:06.656Z,81.90
2018-09-04T10:10:34.836Z,81.20
2018-09-04T10:13:03.172Z,80.70
2018-09-04T10:15:31.576Z,80.10
2018-09-04T10:17:59.894Z,79.20
2018-09-04T10:20:28.314Z,79.70
2018-09-04T10:22:56.686Z,79.60
2018-09-04T10:25:25.027Z,78.50
2018-09-04T10:27:53.411Z,77.80
2018-09-04T10:30:21.799Z,78.10
2018-09-04T10:32:51.734Z,78.40
2018-09-04T10:35:20.925Z,78.90
2018-09-04T10:37:49.795Z,77.60
2018-09-04T10:40:23.570Z,76.90
2018-09-04T10:42:51.879Z,76.70
2018-09-04T10:45:25.497Z,75.90
2018-09-04T10:47:54.302Z,75.90
2018-09-04T10:50:22.847Z,75.60
2018-09-04T10:52:51.796Z,75.00
2018-09-04T10:55:20.196Z,75.50
2018-09-04T10:57:48.672Z,76.50
2018-09-04T11:00:17.369Z,75.90
2018-09-04T11:02:45.881Z,76.20
2018-09-04T11:05:14.360Z,77.00
2018-09-04T11:07:42.770Z,76.30
2018-09-04T11:10:11.179Z,76.00
2018-09-04T11:12:39.770Z,75.90
2018-09-04T11:15:08.211Z,75.80
2018-09-04T11:17:36.593Z,75.20
2018-09-04T11:20:04.988Z,75.10
2018-09-04T11:22:33.313Z,75.70
2018-09-04T11:25:01.649Z,75.60
2018-09-04T11:27:30.058Z,75.60
2018-09-04T11:29:58.383Z,75.50
2018-09-04T11:32:26.738Z,75.10
2018-09-04T11:34:55.180Z,73.50
2018-09-04T11:37:23.519Z,73.80
2018-09-04T11:39:52.090Z,73.70
2018-09-04T11:42:20.439Z,72.90
2018-09-04T11:44:49.909Z,73.20
2018-09-04T11:47:18.346Z,72.10
2018-09-04T11:49:46.720Z,72.10
2018-09-04T11:52:15.107Z,71.70
2018-09-04T11:54:43.388Z,71.40
2018-09-04T11:57:11.738Z,71.00
2018-09-04T11:59:41.547Z,70.40
2018-09-04T12:02:26.595Z,70.00
2018-09-04T12:04:54.978Z,69.80
2018-09-04T12:07:23.335Z,70.40
2018-09-04T12:09:51.777Z,70.00
2018-09-04T12:12:25.610Z,69.70
2018-09-04T12:14:53.998Z,69.80
2018-09-04T12:17:22.343Z,69.60
2018-09-04T12:21:02.099Z,69.50
2018-09-04T12:23:30.408Z,68.90
2018-09-04T12:26:00.874Z,68.30
2018-09-04T12:28:29.484Z,68.50
2018-09-04T12:30:58.397Z,68.00
2018-09-04T12:33:26.798Z,67.10
2018-09-04T12:35:55.178Z,67.20
2018-09-04T12:38:25.127Z,67.20
2018-09-04T12:40:53.484Z,66.40
2018-09-04T12:43:22.626Z,66.70
2018-09-04T12:45:56.490Z,66.00
2018-09-04T12:48:28.053Z,65.70
2018-09-04T12:50:57.554Z,65.20
2018-09-04T12:53:26.761Z,64.00
2018-09-04T12:55:55.118Z,65.50
2018-09-04T12:58:23.449Z,65.30
2018-09-04T13:00:53.133Z,66.60
2018-09-04T13:03:23.833Z,66.60
2018-09-04T13:05:52.237Z,67.40
2018-09-04T13:08:21.725Z,67.50
2018-09-04T13:10:50.056Z,65.80
2018-09-04T13:13:18.412Z,66.60
2018-09-04T13:16:01.197Z,66.40
2018-09-04T13:18:30.214Z,66.20
2018-09-04T13:21:02.544Z,65.80
2018-09-04T13:23:31.530Z,65.10
2018-09-04T13:25:59.955Z,64.80
2018-09-04T13:28:28.927Z,65.00
2018-09-04T13:30:57.311Z,64.50
2018-09-04T13:33:27.887Z,64.00
2018-09-04T13:35:56.329Z,64.30
2018-09-04T13:38:24.768Z,63.60
2018-09-04T13:40:57.383Z,63.30
2018-09-04T13:43:25.718Z,62.30
2018-09-04T13:45:54.043Z,61.90
2018-09-04T13:48:29.478Z,62.30
2018-09-04T13:50:58.045Z,60.90
2018-09-04T13:53:26.936Z,60.70
2018-09-04T13:55:55.416Z,60.40
2018-09-04T13:58:23.766Z,60.30
2018-09-04T14:00:52.111Z,60.20
2018-09-04T14:03:20.467Z,59.20
2018-09-04T14:06:19.730Z,60.00
2018-09-04T14:08:48.270Z,60.10
2018-09-04T14:11:16.731Z,60.40
2018-09-04T14:13:45.085Z,60.50
2018-09-04T14:16:16.085Z,61.00
2018-09-04T14:18:44.427Z,61.20
2018-09-04T14:21:13.516Z,61.40
2018-09-04T14:23:41.936Z,61.50
2018-09-04T14:26:10.332Z,60.60
2018-09-04T14:28:41.864Z,60.60
2018-09-04T14:31:07.221Z,59.80
2018-09-04T14:33:35.592Z,58.70
2018-09-04T14:36:04.211Z,58.00
2018-09-04T14:38:32.603Z,58.00
2018-09-04T14:41:00.952Z,57.20
2018-09-04T14:43:29.284Z,57.60
2018-09-04T14:45:57.676Z,58.30
2018-09-04T14:48:26.473Z,59.20
2018-09-04T14:50:55.487Z,60.00
2018-09-04T14:53:23.816Z,59.80
2018-09-04T14:55:52.329Z,59.60
2018-09-04T14:58:20.799Z,59.50
2018-09-04T15:00:49.168Z,60.30
2018-09-04T15:03:18.396Z,61.80
2018-09-04T15:05:46.779Z,62.20
2018-09-04T15:08:15.187Z,62.10
2018-09-04T15:10:43.599Z,62.00
2018-09-04T15:13:11.970Z,61.70
2018-09-04T15:15:40.427Z,61.40
2018-09-04T15:18:08.765Z,61.10
2018-09-04T15:20:37.221Z,60.70
2018-09-04T15:23:06.159Z,60.20
2018-09-04T15:25:34.572Z,60.90
2018-09-04T15:28:03.154Z,62.50
2018-09-04T15:30:32.740Z,62.90
2018-09-04T15:33:02.307Z,63.40
2018-09-04T15:35:30.632Z,63.60
2018-09-04T15:37:59.014Z,63.00
2018-09-04T15:40:27.398Z,62.80
2018-09-04T15:42:55.786Z,62.70
2018-09-04T15:45:24.225Z,62.50
2018-09-04T15:47:52.554Z,62.10
2018-09-04T15:50:20.918Z,62.40
2018-09-04T15:52:49.367Z,63.50
2018-09-04T15:55:17.758Z,64.60
2018-09-04T15:57:46.292Z,65.40
2018-09-04T16:00:14.623Z,65.20
2018-09-04T16:02:43.017Z,65.10
2018-09-04T16:05:11.406Z,65.30
2018-09-04T16:07:39.733Z,65.10
2018-09-04T16:10:08.228Z,64.90
2018-09-04T16:12:36.514Z,65.30
2018-09-04T16:15:04.898Z,65.70
2018-09-04T16:17:33.258Z,66.00
2018-09-04T16:20:01.882Z,66.10
2018-09-04T16:22:30.318Z,66.40
2018-09-04T16:24:58.634Z,66.50
2018-09-04T16:27:26.944Z,67.00
2018-09-04T16:29:55.491Z,66.90
2018-09-04T16:32:23.838Z,67.50
2018-09-04T16:34:52.305Z,68.00
2018-09-04T16:37:20.600Z,68.60
2018-09-04T16:39:49.082Z,68.90
2018-09-04T16:42:17.406Z,69.80
2018-09-04T16:44:46.014Z,70.20
2018-09-04T16:47:14.413Z,70.60
2018-09-04T16:49:42.881Z,71.00
2018-09-04T16:52:11.331Z,71.50
2018-09-04T16:54:39.865Z,71.90
2018-09-04T16:57:10.433Z,72.70
2018-09-04T16:59:38.968Z,72.90
2018-09-04T17:02:07.286Z,73.30
2018-09-04T17:04:35.648Z,73.70
2018-09-04T17:07:04.294Z,74.10
2018-09-04T17:09:32.665Z,74.10
2018-09-04T17:12:01.115Z,74.20
2018-09-04T17:14:29.884Z,74.80
2018-09-04T17:16:58.859Z,74.90
2018-09-04T17:19:27.249Z,75.70
2018-09-04T17:21:55.621Z,75.90
2018-09-04T17:24:23.967Z,77.00
2018-09-04T17:26:52.302Z,76.60
2018-09-04T17:29:20.661Z,77.00
2018-09-04T17:31:49.143Z,77.30
2018-09-04T17:34:17.503Z,77.50
2018-09-04T17:36:45.927Z,78.50
2018-09-04T17:39:14.360Z,78.80
2018-09-04T17:41:42.672Z,79.60
2018-09-04T17:44:11.060Z,80.00
2018-09-04T17:46:40.399Z,80.50
2018-09-04T17:49:09.427Z,81.30
2018-09-04T17:51:38.074Z,81.50
2018-09-04T17:54:06.460Z,81.80
2018-09-04T17:56:34.832Z,81.90
2018-09-04T17:59:03.419Z,82.10
2018-09-04T18:01:34.400Z,82.70
2018-09-04T18:04:04.111Z,83.00
2018-09-04T18:06:32.681Z,83.60
2018-09-04T18:09:01.142Z,84.10
2018-09-04T18:11:29.505Z,84.70
2018-09-04T18:13:57.854Z,84.90
2018-09-04T18:16:26.311Z,85.30
2018-09-04T18:18:55.233Z,85.30
2018-09-04T18:21:23.569Z,85.10
2018-09-04T18:23:51.931Z,85.70
2018-09-04T18:26:20.315Z,85.90
2018-09-04T18:28:48.701Z,85.70
2018-09-04T18:31:17.015Z,85.80
2018-09-04T18:33:45.328Z,86.70
2018-09-04T18:36:13.727Z,86.40
2018-09-04T18:38:42.038Z,86.50
2018-09-04T18:41:10.523Z,87.10
2018-09-04T18:43:39.049Z,87.40
2018-09-04T18:46:07.499Z,88.10
2018-09-04T18:48:37.093Z,88.50
2018-09-04T18:51:05.640Z,88.30
2018-09-04T18:53:34.087Z,89.10
2018-09-04T18:56:02.506Z,89.30
2018-09-04T18:58:30.892Z,90.30
2018-09-04T19:00:59.216Z,91.50
2018-09-04T19:03:28.986Z,92.00
2018-09-04T19:05:57.374Z,92.30
2018-09-04T19:08:26.034Z,92.80
2018-09-04T19:10:54.460Z,93.30
2018-09-04T19:13:22.940Z,93.50
2018-09-04T19:15:51.391Z,93.50
2018-09-04T19:18:19.824Z,93.80
2018-09-04T19:20:48.325Z,94.00
2018-09-04T19:23:17.496Z,94.40
2018-09-04T19:25:45.954Z,95.10
2018-09-04T19:28:14.465Z,95.70
2018-09-04T19:30:43.559Z,95.80
2018-09-04T19:33:12.552Z,96.10
2018-09-04T19:35:41.532Z,96.40
2018-09-04T19:38:13.524Z,96.80
2018-09-04T19:40:42.684Z,97.00
2018-09-04T19:43:11.227Z,97.00
2018-09-04T19:45:39.679Z,97.00
2018-09-04T19:48:08.334Z,97.00
2018-09-04T19:50:37.068Z,97.00
2018-09-04T19:53:05.775Z,97.00
2018-09-04T19:55:34.301Z,97.00
2018-09-04T19:58:03.977Z,97.00
2018-09-04T20:00:33.984Z,97.00
2018-09-04T20:03:03.809Z,97.00
2018-09-04T20:05:33.527Z,97.00
2018-09-04T20:08:03.239Z,97.00
2018-09-04T20:10:34.588Z,97.00
2018-09-04T20:13:04.262Z,97.00
2018-09-04T20:15:34.139Z,97.00
2018-09-04T20:18:03.971Z,97.00
2018-09-04T20:20:33.017Z,97.00
2018-09-04T20:23:01.734Z,97.00
2018-09-04T20:25:31.039Z,97.00
2018-09-04T20:28:01.150Z,97.00
2018-09-04T20:30:29.898Z,97.00
2018-09-04T20:32:58.719Z,97.00
2018-09-04T20:35:27.525Z,97.00
2018-09-04T20:37:56.682Z,97.00
2018-09-04T20:40:25.480Z,97.00
2018-09-04T20:42:54.459Z,97.00
2018-09-04T20:45:23.911Z,97.00
2018-09-04T20:47:53.039Z,97.00
2018-09-04T20:50:30.301Z,97.00
2018-09-04T20:53:00.314Z,97.00
2018-09-04T20:55:29.853Z,97.00
2018-09-04T20:58:10.671Z,97.00
2018-09-04T21:01:01.959Z,97.00
2018-09-04T21:03:45.057Z,97.00
2018-09-04T21:06:24.508Z,97.00
2018-09-04T21:09:00.851Z,97.00
2018-09-04T21:11:29.894Z,97.00
2018-09-04T21:14:02.717Z,97.00
2018-09-04T21:16:31.557Z,97.00
2018-09-04T21:19:20.849Z,97.00
2018-09-04T21:21:49.577Z,97.00
2018-09-04T21:24:17.958Z,97.00
2018-09-04T21:26:46.373Z,97.00
2018-09-04T21:29:14.922Z,97.00
2018-09-04T21:31:43.287Z,97.00
2018-09-04T21:34:11.645Z,97.00
2018-09-04T21:36:40.099Z,97.00
2018-09-04T21:39:09.471Z,97.00
2018-09-04T21:41:39.018Z,97.00
2018-09-04T21:44:07.380Z,97.00
2018-09-04T21:46:36.101Z,97.00
2018-09-04T21:49:04.641Z,97.00
2018-09-04T21:51:33.096Z,97.00
2018-09-04T21:54:01.453Z,97.00
2018-09-04T21:56:29.798Z,97.00
2018-09-04T21:58:59.323Z,97.00
2018-09-04T22:01:27.812Z,97.00
2018-09-04T22:03:56.569Z,97.00
2018-09-04T22:06:24.887Z,97.00
2018-09-04T22:08:53.914Z,97.00
2018-09-04T22:11:22.692Z,97.00
2018-09-04T22:13:51.011Z,97.00
2018-09-04T22:16:20.454Z,97.00
2018-09-04T22:18:48.835Z,97.00
2018-09-04T22:21:17.199Z,97.00
2018-09-04T22:29:04.469Z,97.00
2018-09-04T22:31:33.131Z,97.00
2018-09-04T22:34:01.817Z,97.00
2018-09-04T22:36:30.639Z,97.00
2018-09-04T22:38:59.533Z,97.00
2018-09-04T22:41:27.868Z,97.00
2018-09-04T22:43:57.098Z,97.00
2018-09-04T22:46:25.413Z,97.00
2018-09-04T22:48:53.777Z,97.00
2018-09-04T22:51:27.500Z,97.00
2018-09-04T22:53:56.210Z,97.00
2018-09-04T22:56:24.603Z,97.00
2018-09-04T22:58:52.943Z,97.00
2018-09-04T23:01:21.910Z,97.00
2018-09-04T23:03:51.006Z,97.00
2018-09-04T23:06:20.298Z,97.00
2018-09-04T23:08:48.720Z,97.00
2018-09-04T23:11:17.079Z,97.00
2018-09-04T23:13:45.476Z,97.00
2018-09-04T23:16:14.227Z,97.00
2018-09-04T23:18:42.623Z,97.00
2018-09-04T23:21:10.964Z,97.00
2018-09-04T23:23:39.409Z,97.00
2018-09-04T23:26:07.767Z,97.00
2018-09-04T23:28:36.134Z,97.00
2018-09-04T23:31:04.636Z,97.00
2018-09-04T23:33:34.038Z,97.00
2018-09-04T23:36:02.422Z,97.00
2018-09-04T23:38:30.913Z,97.00
2018-09-04T23:41:00.437Z,97.00
2018-09-04T23:43:28.854Z,97.00
2018-09-04T23:45:57.158Z,97.00
2018-09-04T23:48:26.555Z,97.00
2018-09-04T23:50:54.944Z,97.00
2018-09-04T23:53:23.402Z,97.00
2018-09-04T23:55:51.788Z,97.00
2018-09-04T23:58:20.214Z,97.00
